Time;durP1;ratioP1;P1;durP2;ratioP2;P2;SDS_P1;SDS_P2;PMS_P1;PMS_P2;Temp;Humidity;BMP_temperature;BMP_pressure;BME280_temperature;BME280_humidity;BME280_pressure;Samples;Min_cycle;Max_cycle;Signal;HPM_P1;HPM_P2
2022/10/27 00:01:09;;;;;;;;;;;;;;;19.96;50.91;96047.06;6123270;19;1642;-74
2022/10/27 00:03:13;;;;;;;;;;;;;;;19.96;50.42;96044.41;6124280;19;1849;-74
2022/10/27 00:05:17;;;;;;;;;;;;;;;19.96;50.49;96041.72;6124760;19;1730;-75
2022/10/27 00:07:20;;;;;;;;;;;;;;;19.96;50.43;96041.72;6125064;19;1713;-74
2022/10/27 00:09:23;;;;;;;;;;;;;;;19.96;50.37;96047.06;6118259;19;1729;-75
2022/10/27 00:11:29;;;;;;;;;;;;;;;19.96;50.73;96049.72;6115874;19;1117;-75
2022/10/27 00:13:33;;;;;;;;;;;;;;;19.95;50.55;96050.75;6123864;19;1582;-74
2022/10/27 00:15:36;;;;;;;;;;;;;;;19.95;50.22;96050.75;6126432;19;1574;-75
2022/10/27 00:17:39;;;;;;;;;;;;;;;19.95;50.49;96050.75;6125888;19;1517;-75
2022/10/27 00:19:43;;;;;;;;;;;;;;;19.95;50.24;96056.09;6122488;19;1033;-75
2022/10/27 00:21:46;;;;;;;;;;;;;;;19.95;50.15;96056.09;6109635;19;1567;-75
2022/10/27 00:23:49;;;;;;;;;;;;;;;19.93;50.39;96053.59;6123746;19;2047;-75
2022/10/27 00:25:54;;;;;;;;;;;;;;;19.95;50.39;96061.44;6126780;19;1748;-75
2022/10/27 00:28:00;;;;;;;;;;;;;;;19.95;50.40;96064.09;6125463;19;1664;-74
2022/10/27 00:30:03;;;;;;;;;;;;;;;19.93;50.23;96058.09;6122758;19;1223;-75
2022/10/27 00:32:07;;;;;;;;;;;;;;;19.93;50.26;96053.59;6116421;19;1820;-75
2022/10/27 00:34:10;;;;;;;;;;;;;;;19.94;50.36;96054.41;6115332;19;1108;-75
2022/10/27 00:36:14;;;;;;;;;;;;;;;19.93;49.93;96058.09;6124935;19;1662;-73
2022/10/27 00:38:18;;;;;;;;;;;;;;;19.93;50.35;96061.59;6123269;19;1572;-74
2022/10/27 00:40:21;;;;;;;;;;;;;;;19.93;49.88;96069.59;6124958;19;1795;-75
2022/10/27 00:42:24;;;;;;;;;;;;;;;19.93;50.28;96058.91;6121951;19;2163;-74
2022/10/27 00:44:35;;;;;;;;;;;;;;;19.93;50.22;96063.44;6108062;19;1116;-74
2022/10/27 00:46:42;;;;;;;;;;;;;;;19.92;50.16;96061.75;6122626;19;1030;-74
2022/10/27 00:48:45;;;;;;;;;;;;;;;19.93;49.86;96061.59;6122803;19;1053;-75
2022/10/27 00:50:49;;;;;;;;;;;;;;;19.93;50.22;96058.09;6122201;19;1045;-75
2022/10/27 00:52:54;;;;;;;;;;;;;;;19.93;50.32;96063.44;6124282;19;1855;-75
2022/10/27 00:54:58;;;;;;;;;;;;;;;19.92;50.63;96062.63;6116559;19;1628;-74
2022/10/27 00:57:04;;;;;;;;;;;;;;;19.92;50.48;96065.28;6115589;19;1638;-75
2022/10/27 00:59:07;;;;;;;;;;;;;;;19.93;50.60;96068.78;6122986;19;1776;-74
2022/10/27 01:01:14;;;;;;;;;;;;;;;19.93;50.47;96066.09;6123094;19;1466;-74
2022/10/27 01:03:20;;;;;;;;;;;;;;;19.93;50.50;96074.09;6123856;19;1866;-75
2022/10/27 01:05:24;;;;;;;;;;;;;;;19.91;50.47;96074.28;6122112;19;1361;-75
2022/10/27 01:07:29;;;;;;;;;;;;;;;19.91;49.96;96068.94;6107218;19;1400;-75
2022/10/27 01:09:33;;;;;;;;;;;;;;;19.93;50.38;96068.78;6124937;19;1522;-74
2022/10/27 01:11:36;;;;;;;;;;;;;;;19.93;49.93;96071.44;6125843;19;1654;-74
2022/10/27 01:13:39;;;;;;;;;;;;;;;19.93;50.23;96079.44;6124935;19;1632;-74
2022/10/27 01:15:49;;;;;;;;;;;;;;;19.92;50.14;96075.09;6124564;19;1505;-75
2022/10/27 01:17:58;;;;;;;;;;;;;;;19.92;50.16;96077.75;6117747;19;1525;-74
2022/10/27 01:20:16;;;;;;;;;;;;;;;19.92;50.44;96073.28;6116993;19;1674;-75
2022/10/27 01:22:23;;;;;;;;;;;;;;;19.93;50.24;96071.44;6123064;19;1495;-74
2022/10/27 01:24:41;;;;;;;;;;;;;;;19.92;50.35;96081.28;6119427;19;1845;-74
2022/10/27 01:26:49;;;;;;;;;;;;;;;19.91;50.14;96081.44;6125453;19;1809;-74
2022/10/27 01:29:06;;;;;;;;;;;;;;;19.93;50.20;96093.59;6120811;19;1836;-73
2022/10/27 01:31:15;;;;;;;;;;;;;;;19.92;50.60;96080.44;6112349;19;1385;-75
2022/10/27 01:33:22;;;;;;;;;;;;;;;19.92;50.55;96091.97;6121508;19;1060;-75
2022/10/27 01:35:29;;;;;;;;;;;;;;;19.91;50.66;96087.63;6121568;19;1033;-74
2022/10/27 01:37:38;;;;;;;;;;;;;;;19.92;50.73;96085.75;6123628;19;1775;-73
2022/10/27 01:39:45;;;;;;;;;;;;;;;19.93;51.04;96087.44;6122049;19;1539;-74
2022/10/27 01:41:50;;;;;;;;;;;;;;;19.90;50.85;96088.63;6107310;19;1535;-74
2022/10/27 01:43:56;;;;;;;;;;;;;;;19.91;50.97;96087.63;6120512;19;1841;-74
2022/10/27 01:46:00;;;;;;;;;;;;;;;19.92;50.85;96085.75;6123153;19;1613;-74
2022/10/27 01:48:08;;;;;;;;;;;;;;;19.92;51.01;96089.28;6121121;19;1021;-75
2022/10/27 01:50:11;;;;;;;;;;;;;;;19.92;50.88;96091.97;6121006;19;1054;-72
2022/10/27 01:52:29;;;;;;;;;;;;;;;19.92;50.54;96091.97;6114516;19;1043;-73
2022/10/27 01:54:33;;;;;;;;;;;;;;;19.91;50.70;96087.63;6113818;19;1514;-72
2022/10/27 01:56:54;;;;;;;;;;;;;;;19.92;50.86;96089.28;6121134;19;1054;-71
2022/10/27 01:59:05;;;;;;;;;;;;;;;19.92;50.77;96083.97;6120275;19;1120;-69
2022/10/27 02:01:17;;;;;;;;;;;;;;;19.92;51.22;96091.97;6123213;19;1766;-70
2022/10/27 02:03:28;;;;;;;;;;;;;;;19.92;50.82;96088.44;6120156;19;1858;-70
2022/10/27 02:05:37;;;;;;;;;;;;;;;19.95;51.06;96088.09;6108492;19;1305;-71
2022/10/27 02:07:46;;;;;;;;;;;;;;;19.93;51.17;96076.78;6122739;19;1534;-71
2022/10/27 02:09:53;;;;;;;;;;;;;;;19.92;50.84;96078.63;6120525;19;2073;-71
2022/10/27 02:11:59;;;;;;;;;;;;;;;19.93;50.88;96074.94;6121518;19;1826;-71
2022/10/27 02:14:02;;;;;;;;;;;;;;;19.94;50.99;96079.25;6122779;19;1537;-71
2022/10/27 02:16:07;;;;;;;;;;;;;;;19.94;50.75;96081.91;6105978;19;1066;-71
2022/10/27 02:18:12;;;;;;;;;;;;;;;19.93;50.88;96079.44;6123435;19;1554;-71
2022/10/27 02:20:22;;;;;;;;;;;;;;;19.93;50.95;96076.78;6122532;19;1446;-72
2022/10/27 02:22:27;;;;;;;;;;;;;;;19.93;50.82;96077.59;6123609;19;1722;-72
2022/10/27 02:24:31;;;;;;;;;;;;;;;19.94;50.75;96081.09;6120650;19;1859;-70
2022/10/27 02:26:38;;;;;;;;;;;;;;;19.95;50.47;96077.44;6115878;19;1431;-72
2022/10/27 02:28:45;;;;;;;;;;;;;;;19.95;51.10;96077.44;6113058;19;1584;-72
2022/10/27 02:30:49;;;;;;;;;;;;;;;19.95;51.02;96085.44;6119732;19;1594;-72
2022/10/27 02:32:52;;;;;;;;;;;;;;;19.98;50.67;96085.88;6122894;19;1752;-71
2022/10/27 02:34:56;;;;;;;;;;;;;;;20.01;50.87;96084.69;6123668;19;1565;-73
2022/10/27 02:37:02;;;;;;;;;;;;;;;20.03;51.03;96082.66;6121967;19;1757;-71
2022/10/27 02:39:05;;;;;;;;;;;;;;;20.01;50.31;96082.03;6104761;19;1842;-69
2022/10/27 02:41:08;;;;;;;;;;;;;;;19.99;50.21;96084.03;6121458;19;1789;-71
2022/10/27 02:43:12;;;;;;;;;;;;;;;19.98;50.46;96088.56;6129041;19;2050;-72
2022/10/27 02:45:15;;;;;;;;;;;;;;;19.97;50.62;96094.88;6125141;19;1128;-72
2022/10/27 02:47:18;;;;;;;;;;;;;;;19.95;50.35;96096.09;6126456;19;1049;-72
2022/10/27 02:49:22;;;;;;;;;;;;;;;19.97;50.39;96099.41;6122786;19;1579;-73
2022/10/27 02:51:25;;;;;;;;;;;;;;;19.97;50.67;96096.72;6119739;19;1828;-72
2022/10/27 02:53:31;;;;;;;;;;;;;;;19.96;50.79;96103.91;6125771;19;2000;-74
2022/10/27 02:55:35;;;;;;;;;;;;;;;19.95;50.69;96107.59;6128051;19;1725;-72
2022/10/27 02:57:38;;;;;;;;;;;;;;;19.95;50.32;96110.25;6127597;19;1750;-71
2022/10/27 02:59:42;;;;;;;;;;;;;;;19.86;51.08;96112.19;6128298;19;1603;-73
2022/10/27 03:01:45;;;;;;;;;;;;;;;19.95;50.79;96110.25;6109984;19;1613;-75
2022/10/27 03:03:49;;;;;;;;;;;;;;;19.99;50.82;96113.38;6126378;19;1863;-73
2022/10/27 03:05:52;;;;;;;;;;;;;;;20.02;50.38;96115.69;6123453;19;1848;-71
2022/10/27 03:07:55;;;;;;;;;;;;;;;20.02;50.08;96113.84;6125363;19;2007;-74
2022/10/27 03:10:01;;;;;;;;;;;;;;;20.02;50.05;96121.03;6126799;19;1822;-73
2022/10/27 03:12:05;;;;;;;;;;;;;;;19.54;45.34;96115.09;6121396;19;2070;-74
2022/10/27 03:14:08;;;;;;;;;;;;;;;19.08;43.38;96121.19;6114762;19;1416;-74
2022/10/27 03:16:11;;;;;;;;;;;;;;;18.88;42.34;96119.97;6125216;19;2096;-73
2022/10/27 03:18:15;;;;;;;;;;;;;;;18.74;42.12;96117.03;6127993;19;1587;-72
2022/10/27 03:20:18;;;;;;;;;;;;;;;18.64;41.78;96118.22;6125533;19;1554;-74
2022/10/27 03:22:22;;;;;;;;;;;;;;;18.64;41.41;96113.72;6125400;19;1820;-74
2022/10/27 03:24:25;;;;;;;;;;;;;;;18.59;41.10;96113.41;6110194;19;1875;-74
2022/10/27 03:26:31;;;;;;;;;;;;;;;18.53;40.91;96120.25;6126098;19;1823;-74
2022/10/27 03:28:35;;;;;;;;;;;;;;;18.44;40.25;96131.94;6126915;19;1955;-74
2022/10/27 03:30:38;;;;;;;;;;;;;;;18.39;39.87;96131.59;6124563;19;1009;-74
2022/10/27 03:32:42;;;;;;;;;;;;;;;18.39;39.77;96128.13;6124846;19;1808;-74
2022/10/27 03:34:45;;;;;;;;;;;;;;;18.37;40.07;96138.91;6121188;19;1370;-73
2022/10/27 03:36:48;;;;;;;;;;;;;;;18.33;39.87;96140.28;6116956;19;1524;-74
2022/10/27 03:38:53;;;;;;;;;;;;;;;18.27;39.69;96140.94;6127639;19;1477;-74
2022/10/27 03:40:56;;;;;;;;;;;;;;;18.22;40.22;96140.63;6124349;19;967;-74
2022/10/27 03:43:02;;;;;;;;;;;;;;;18.17;39.31;96140.28;6126755;19;1833;-74
2022/10/27 03:45:05;;;;;;;;;;;;;;;18.09;39.41;96143.78;6121634;19;1841;-73
2022/10/27 03:47:09;;;;;;;;;;;;;;;18.31;40.45;96153.72;6108228;19;1058;-76
2022/10/27 03:49:12;;;;;;;;;;;;;;;18.61;40.92;96142.50;6123538;19;1129;-76
2022/10/27 03:51:15;;;;;;;;;;;;;;;18.83;41.18;96144.44;6123587;19;1144;-75
2022/10/27 03:53:20;;;;;;;;;;;;;;;19.02;41.69;96148.53;6122940;19;1826;-75
2022/10/27 03:55:23;;;;;;;;;;;;;;;19.14;41.99;96154.28;6126361;19;1649;-75
2022/10/27 03:57:26;;;;;;;;;;;;;;;19.21;42.01;96147.28;6126864;19;2054;-76
2022/10/27 03:59:32;;;;;;;;;;;;;;;19.27;42.10;96143.91;6106085;19;1393;-77
2022/10/27 04:01:36;;;;;;;;;;;;;;;19.31;42.06;96139.88;6123968;19;1025;-74
2022/10/27 04:03:39;;;;;;;;;;;;;;;19.34;42.08;96134.19;6123745;19;1838;-77
2022/10/27 04:05:42;;;;;;;;;;;;;;;19.39;42.58;96136.34;6125287;19;1595;-75
2022/10/27 04:07:46;;;;;;;;;;;;;;;19.40;42.63;96137.97;6124683;19;1393;-75
2022/10/27 04:09:49;;;;;;;;;;;;;;;19.42;42.34;96139.47;6118860;19;1344;-75
2022/10/27 04:11:53;;;;;;;;;;;;;;;19.42;42.71;96142.13;6120942;19;1577;-75
2022/10/27 04:13:56;;;;;;;;;;;;;;;19.43;42.57;96137.63;6126604;19;1751;-74
2022/10/27 04:16:03;;;;;;;;;;;;;;;19.44;42.84;96141.97;6123715;19;967;-74
2022/10/27 04:18:07;;;;;;;;;;;;;;;19.44;42.96;96139.31;6123790;19;1041;-75
2022/10/27 04:20:11;;;;;;;;;;;;;;;19.44;42.78;96137.47;6121661;19;1541;-75
2022/10/27 04:22:14;;;;;;;;;;;;;;;19.45;43.04;96141.78;6109746;19;1602;-74
2022/10/27 04:24:17;;;;;;;;;;;;;;;19.45;42.92;96131.13;6122277;19;1807;-75
2022/10/27 04:26:21;;;;;;;;;;;;;;;19.47;43.24;96127.47;6124435;19;1730;-75
2022/10/27 04:28:24;;;;;;;;;;;;;;;19.48;43.24;96145.09;6122149;19;982;-75
2022/10/27 04:30:27;;;;;;;;;;;;;;;19.49;43.32;96144.09;6122854;19;1054;-73
2022/10/27 04:32:33;;;;;;;;;;;;;;;19.51;43.05;96140.25;6116416;19;1062;-75
2022/10/27 04:34:36;;;;;;;;;;;;;;;19.52;43.19;96147.25;6115658;19;1176;-74
2022/10/27 04:36:40;;;;;;;;;;;;;;;19.52;43.39;96141.06;6122623;19;1258;-74
2022/10/27 04:38:43;;;;;;;;;;;;;;;19.53;43.74;96145.44;6123007;19;1057;-75
2022/10/27 04:40:46;;;;;;;;;;;;;;;19.55;43.71;96143.41;6123146;19;1029;-74
2022/10/27 04:42:50;;;;;;;;;;;;;;;19.56;43.69;96143.25;6120505;19;1030;-74
2022/10/27 04:44:53;;;;;;;;;;;;;;;19.57;43.95;96144.06;6104228;19;1849;-73
2022/10/27 04:46:57;;;;;;;;;;;;;;;19.32;42.87;96144.22;6121112;19;1291;-72
2022/10/27 04:49:03;;;;;;;;;;;;;;;18.66;40.79;96151.66;6120258;19;1033;-73
2022/10/27 04:51:06;;;;;;;;;;;;;;;18.39;40.30;96152.88;6119111;19;1050;-72
2022/10/27 04:53:10;;;;;;;;;;;;;;;18.25;40.29;96148.25;6120358;19;1028;-72
2022/10/27 04:55:13;;;;;;;;;;;;;;;18.18;39.66;96158.75;6112263;19;1256;-72
2022/10/27 04:57:17;;;;;;;;;;;;;;;18.13;39.54;96160.25;6112141;19;1142;-72
2022/10/27 04:59:20;;;;;;;;;;;;;;;18.06;39.48;96155.59;6121674;19;1050;-72
2022/10/27 05:01:25;;;;;;;;;;;;;;;18.00;39.51;96155.44;6121402;19;1037;-72
2022/10/27 05:03:29;;;;;;;;;;;;;;;17.96;39.03;96154.13;6121752;19;1022;-73
2022/10/27 05:05:34;;;;;;;;;;;;;;;17.90;39.34;96155.63;6118897;19;1841;-74
2022/10/27 05:07:41;;;;;;;;;;;;;;;17.85;38.96;96157.94;6102243;19;1396;-72
2022/10/27 05:09:44;;;;;;;;;;;;;;;17.80;39.08;96170.91;6120864;19;915;-73
2022/10/27 05:11:47;;;;;;;;;;;;;;;17.76;38.66;96172.25;6120762;19;1129;-73
2022/10/27 05:13:54;;;;;;;;;;;;;;;17.72;38.77;96178.84;6120427;19;1081;-73
2022/10/27 05:16:00;;;;;;;;;;;;;;;17.69;38.81;96181.81;6121565;19;1053;-72
2022/10/27 05:18:04;;;;;;;;;;;;;;;17.66;38.87;96185.63;6113330;19;1079;-73
2022/10/27 05:20:08;;;;;;;;;;;;;;;17.68;38.97;96188.16;6111830;19;1035;-72
2022/10/27 05:22:13;;;;;;;;;;;;;;;17.69;39.24;96193.28;6121367;19;1057;-72
2022/10/27 05:24:17;;;;;;;;;;;;;;;17.65;39.04;96200.75;6120701;19;1830;-72
2022/10/27 05:26:23;;;;;;;;;;;;;;;17.62;39.07;96201.09;6121383;19;1013;-72
2022/10/27 05:28:26;;;;;;;;;;;;;;;17.66;39.12;96202.41;6120834;19;1050;-76
2022/10/27 05:30:30;;;;;;;;;;;;;;;17.96;39.71;96208.13;6105768;19;1150;-76
2022/10/27 05:32:33;;;;;;;;;;;;;;;18.23;39.91;96206.94;6121221;19;1113;-74
2022/10/27 05:34:36;;;;;;;;;;;;;;;18.47;40.11;96216.75;6121178;19;1287;-75
2022/10/27 05:36:40;;;;;;;;;;;;;;;18.64;40.00;96212.22;6120525;19;1090;-75
2022/10/27 05:38:46;;;;;;;;;;;;;;;18.75;40.01;96213.69;6120713;19;1181;-77
2022/10/27 05:40:49;;;;;;;;;;;;;;;18.82;40.01;96220.03;6114236;19;1095;-76
2022/10/27 05:42:53;;;;;;;;;;;;;;;18.88;40.36;96224.66;6112749;19;1062;-76
2022/10/27 05:44:57;;;;;;;;;;;;;;;18.92;40.59;96227.81;6120886;19;1856;-75
2022/10/27 05:47:00;;;;;;;;;;;;;;;18.97;40.69;96233.44;6121692;19;954;-75
2022/10/27 05:49:04;;;;;;;;;;;;;;;19.02;40.72;96230.28;6121042;19;1132;-75
2022/10/27 05:51:07;;;;;;;;;;;;;;;19.04;40.48;96234.44;6121222;19;1283;-74
2022/10/27 05:53:13;;;;;;;;;;;;;;;19.07;40.56;96242.09;6105907;19;1037;-75
2022/10/27 05:55:19;;;;;;;;;;;;;;;19.11;40.88;96239.91;6120463;19;1089;-74
2022/10/27 05:57:22;;;;;;;;;;;;;;;19.13;40.68;96249.38;6120616;19;1368;-75
2022/10/27 05:59:26;;;;;;;;;;;;;;;19.15;41.10;96249.19;6121198;19;1001;-75
2022/10/27 06:01:29;;;;;;;;;;;;;;;19.17;41.14;96245.34;6121355;19;974;-76
2022/10/27 06:03:32;;;;;;;;;;;;;;;19.20;41.56;96255.66;6113437;19;1133;-77
2022/10/27 06:05:37;;;;;;;;;;;;;;;19.22;41.66;96255.50;6112311;19;1962;-79
2022/10/27 06:07:41;;;;;;;;;;;;;;;19.26;41.56;96261.31;6119402;19;1108;-73
2022/10/27 06:09:44;;;;;;;;;;;;;;;19.26;41.39;96259.47;6120128;19;978;-73
2022/10/27 06:11:50;;;;;;;;;;;;;;;19.27;41.16;96255.00;6119029;19;1108;-73
2022/10/27 06:13:54;;;;;;;;;;;;;;;19.29;40.93;96253.84;6119710;19;1121;-72
2022/10/27 06:15:57;;;;;;;;;;;;;;;19.30;40.92;96258.16;6101518;19;1147;-73
2022/10/27 06:18:00;;;;;;;;;;;;;;;19.31;41.00;96257.13;6118145;19;1491;-75
2022/10/27 06:20:04;;;;;;;;;;;;;;;19.33;40.68;96254.31;6119869;19;1378;-73
2022/10/27 06:22:07;;;;;;;;;;;;;;;19.33;40.55;96255.13;6119898;19;1048;-73
2022/10/27 06:24:10;;;;;;;;;;;;;;;19.34;40.64;96256.78;6119813;19;1100;-73
2022/10/27 06:26:13;;;;;;;;;;;;;;;19.35;40.49;96252.28;6108904;19;1860;-73
2022/10/27 06:28:21;;;;;;;;;;;;;;;19.37;40.95;96256.44;6110341;19;1053;-73
2022/10/27 06:30:24;;;;;;;;;;;;;;;19.37;40.60;96260.94;6119729;19;1038;-73
2022/10/27 06:32:28;;;;;;;;;;;;;;;19.38;40.62;96267.94;6119281;19;1069;-73
2022/10/27 06:34:31;;;;;;;;;;;;;;;19.38;40.90;96268.78;6119183;19;978;-73
2022/10/27 06:36:34;;;;;;;;;;;;;;;19.40;40.63;96272.06;6119202;19;1037;-73
2022/10/27 06:38:38;;;;;;;;;;;;;;;19.40;40.87;96274.75;6100493;19;1516;-73
2022/10/27 06:40:41;;;;;;;;;;;;;;;19.41;40.66;96272.94;6119695;19;1025;-73
2022/10/27 06:42:45;;;;;;;;;;;;;;;19.43;40.91;96277.09;6118987;19;970;-73
2022/10/27 06:44:52;;;;;;;;;;;;;;;19.44;41.15;96285.91;6119251;19;1845;-73
2022/10/27 06:46:55;;;;;;;;;;;;;;;19.43;41.52;96290.41;6119108;19;1046;-74
2022/10/27 06:48:58;;;;;;;;;;;;;;;19.42;41.46;96280.75;6110048;19;1284;-74
2022/10/27 06:51:02;;;;;;;;;;;;;;;19.42;41.38;96288.72;6111742;19;1034;-73
2022/10/27 06:53:05;;;;;;;;;;;;;;;19.45;41.83;96279.56;6119353;19;971;-75
2022/10/27 06:55:09;;;;;;;;;;;;;;;19.47;41.83;96276.75;6119390;19;1275;-74
2022/10/27 06:57:13;;;;;;;;;;;;;;;19.45;42.01;96280.38;6118782;19;1056;-73
2022/10/27 06:59:17;;;;;;;;;;;;;;;19.48;41.81;96289.06;6119076;19;1037;-73
2022/10/27 07:01:23;;;;;;;;;;;;;;;19.48;42.05;96289.06;6101850;19;1216;-73
2022/10/27 07:03:27;;;;;;;;;;;;;;;19.51;42.28;96294.03;6117593;19;1133;-74
2022/10/27 07:05:30;;;;;;;;;;;;;;;19.50;42.09;96292.38;6117701;19;1856;-74
2022/10/27 07:07:34;;;;;;;;;;;;;;;19.51;41.89;96304.69;6117497;19;1069;-74
2022/10/27 07:09:37;;;;;;;;;;;;;;;19.51;42.09;96299.38;6117721;19;1119;-73
2022/10/27 07:11:40;;;;;;;;;;;;;;;19.53;42.41;96300.06;6102530;19;1105;-73
2022/10/27 07:13:44;;;;;;;;;;;;;;;19.53;42.02;96300.88;6116795;19;1009;-73
2022/10/27 07:15:47;;;;;;;;;;;;;;;19.53;42.09;96295.56;6117897;19;1081;-73
2022/10/27 07:17:55;;;;;;;;;;;;;;;19.54;42.41;96296.38;6118554;19;950;-74
2022/10/27 07:19:58;;;;;;;;;;;;;;;19.55;42.71;96300.69;6118332;19;1037;-74
2022/10/27 07:22:02;;;;;;;;;;;;;;;19.53;42.79;96292.88;6119280;19;982;-74
2022/10/27 07:24:05;;;;;;;;;;;;;;;19.56;42.96;96297.06;6102642;19;1127;-74
2022/10/27 07:26:09;;;;;;;;;;;;;;;19.55;42.60;96298.03;6116478;19;1836;-74
2022/10/27 07:28:12;;;;;;;;;;;;;;;19.55;41.88;96308.69;6121855;19;1037;-73
2022/10/27 07:30:15;;;;;;;;;;;;;;;19.55;41.41;96306.88;6124433;19;1124;-74
2022/10/27 07:32:19;;;;;;;;;;;;;;;19.56;41.34;96305.03;6124712;19;1009;-74
2022/10/27 07:34:25;;;;;;;;;;;;;;;19.58;41.40;96311.88;6111320;19;1517;-73
2022/10/27 07:36:28;;;;;;;;;;;;;;;19.60;41.44;96309.84;6123997;19;1184;-74
2022/10/27 07:38:32;;;;;;;;;;;;;;;19.62;41.53;96317.69;6124108;19;1124;-74
2022/10/27 07:40:35;;;;;;;;;;;;;;;19.62;41.38;96312.34;6123561;19;1119;-74
2022/10/27 07:42:43;;;;;;;;;;;;;;;19.63;41.57;96317.53;6124062;19;1030;-74
2022/10/27 07:44:46;;;;;;;;;;;;;;;19.64;41.12;96311.16;6123938;19;1140;-74
2022/10/27 07:46:49;;;;;;;;;;;;;;;19.63;41.48;96309.53;6104329;19;1845;-74
2022/10/27 07:48:53;;;;;;;;;;;;;;;19.64;41.58;96316.50;6123530;19;1025;-74
2022/10/27 07:50:59;;;;;;;;;;;;;;;19.66;41.29;96314.50;6123942;19;1014;-74
2022/10/27 07:53:02;;;;;;;;;;;;;;;19.67;41.17;96320.66;6124090;19;1048;-74
2022/10/27 07:55:06;;;;;;;;;;;;;;;19.68;41.47;96316.97;6123197;19;1042;-74
2022/10/27 07:57:09;;;;;;;;;;;;;;;19.69;41.29;96328.47;6109604;19;1223;-76
2022/10/27 07:59:13;;;;;;;;;;;;;;;19.70;41.60;96314.97;6125016;19;1133;-75
2022/10/27 08:01:16;;;;;;;;;;;;;;;19.68;41.66;96322.31;6125806;19;1089;-82
2022/10/27 08:03:20;;;;;;;;;;;;;;;19.68;41.56;96319.66;6128933;19;1046;-77
2022/10/27 08:05:24;;;;;;;;;;;;;;;19.69;41.94;96313.31;6123121;19;1853;-76
2022/10/27 08:07:30;;;;;;;;;;;;;;;19.66;41.59;96313.66;6123967;19;1136;-75
2022/10/27 08:09:33;;;;;;;;;;;;;;;19.68;41.52;96316.97;6109427;19;1092;-75
2022/10/27 08:11:36;;;;;;;;;;;;;;;19.69;41.36;96321.31;6123739;19;986;-75
2022/10/27 08:13:40;;;;;;;;;;;;;;;19.71;41.28;96316.63;6124306;19;982;-76
2022/10/27 08:15:43;;;;;;;;;;;;;;;19.70;41.60;96314.97;6123921;19;1128;-75
2022/10/27 08:17:46;;;;;;;;;;;;;;;19.71;41.53;96308.63;6123946;19;1037;-76
2022/10/27 08:19:50;;;;;;;;;;;;;;;19.71;41.51;96305.97;6111553;19;1156;-76
2022/10/27 08:21:53;;;;;;;;;;;;;;;19.70;41.40;96311.47;6124284;19;1066;-75
2022/10/27 08:23:59;;;;;;;;;;;;;;;19.70;41.61;96308.81;6126793;19;1096;-75
2022/10/27 08:26:02;;;;;;;;;;;;;;;19.71;41.46;96302.47;6123224;19;1865;-75
2022/10/27 08:28:06;;;;;;;;;;;;;;;19.67;41.40;96297.47;6123399;19;1166;-75
2022/10/27 08:30:10;;;;;;;;;;;;;;;19.69;41.44;96304.47;6123708;19;1034;-75
2022/10/27 08:32:14;;;;;;;;;;;;;;;19.68;41.78;96303.66;6107507;19;1065;-75
2022/10/27 08:34:18;;;;;;;;;;;;;;;19.68;41.87;96303.66;6123555;19;1022;-75
2022/10/27 08:36:21;;;;;;;;;;;;;;;19.67;41.82;96304.66;6123714;19;1097;-75
2022/10/27 08:38:24;;;;;;;;;;;;;;;19.66;42.01;96300.31;6123302;19;1097;-75
2022/10/27 08:40:34;;;;;;;;;;;;;;;19.65;41.88;96302.16;6121898;19;986;-76
2022/10/27 08:42:40;;;;;;;;;;;;;;;19.66;41.82;96303.84;6106629;19;1148;-74
2022/10/27 08:44:48;;;;;;;;;;;;;;;19.67;41.99;96299.31;6122264;19;1006;-74
2022/10/27 08:46:52;;;;;;;;;;;;;;;19.68;42.04;96300.97;6120871;19;1865;-77
2022/10/27 08:48:59;;;;;;;;;;;;;;;19.67;42.44;96299.31;6122250;19;1223;-75
2022/10/27 08:51:04;;;;;;;;;;;;;;;19.68;42.43;96306.31;6120105;19;1439;-77
2022/10/27 08:53:08;;;;;;;;;;;;;;;19.68;42.38;96300.97;6121599;19;1061;-77
2022/10/27 08:55:20;;;;;;;;;;;;;;;19.69;42.61;96301.81;6107161;19;1524;-77
2022/10/27 08:57:29;;;;;;;;;;;;;;;19.68;42.95;96295.66;6122487;19;1012;-78
2022/10/27 08:59:35;;;;;;;;;;;;;;;19.68;42.93;96300.97;6122128;19;1073;-77
2022/10/27 09:01:43;;;;;;;;;;;;;;;19.68;43.10;96300.97;6121563;19;1041;-77
2022/10/27 09:03:59;;;;;;;;;;;;;;;19.70;42.85;96303.47;6122382;19;1025;-76
2022/10/27 09:06:07;;;;;;;;;;;;;;;19.69;43.16;96299.13;6104255;19;1853;-77
2022/10/27 09:08:16;;;;;;;;;;;;;;;19.70;43.03;96298.16;6121248;19;1062;-78
2022/10/27 09:10:26;;;;;;;;;;;;;;;19.70;43.36;96304.31;6121451;19;1013;-77
2022/10/27 09:12:48;;;;;;;;;;;;;;;19.69;43.25;96302.66;6121779;19;1027;-77
2022/10/27 09:15:09;;;;;;;;;;;;;;;19.70;43.41;96298.97;6122132;19;1042;-78
2022/10/27 09:17:16;;;;;;;;;;;;;;;19.71;43.59;96300.63;6105493;19;1110;-77
2022/10/27 09:19:24;;;;;;;;;;;;;;;19.70;43.54;96300.81;6120147;19;1537;-77
2022/10/27 09:21:28;;;;;;;;;;;;;;;19.69;43.27;96300.00;6121391;19;1125;-77
2022/10/27 09:23:46;;;;;;;;;;;;;;;19.70;43.57;96295.47;6121411;19;1150;-77
2022/10/27 09:25:51;;;;;;;;;;;;;;;19.71;43.43;96303.28;6121404;19;1856;-77
2022/10/27 09:28:00;;;;;;;;;;;;;;;19.71;43.72;96297.13;6111685;19;1094;-73
2022/10/27 09:30:06;;;;;;;;;;;;;;;19.71;43.79;96295.28;6121511;19;1027;-78
2022/10/27 09:32:19;;;;;;;;;;;;;;;19.72;43.53;96293.44;6120608;19;1073;-77
2022/10/27 09:34:26;;;;;;;;;;;;;;;19.72;43.82;96294.31;6120344;19;1438;-78
2022/10/27 09:36:29;;;;;;;;;;;;;;;19.71;43.65;96292.63;6120920;19;1446;-77
2022/10/27 09:38:32;;;;;;;;;;;;;;;19.73;43.98;96284.47;6120561;19;962;-76
2022/10/27 09:40:36;;;;;;;;;;;;;;;19.72;43.99;96280.13;6108483;19;1000;-77
2022/10/27 09:42:39;;;;;;;;;;;;;;;19.72;43.62;96286.31;6120806;19;1085;-77
2022/10/27 09:44:47;;;;;;;;;;;;;;;19.72;43.97;96278.31;6120909;19;1021;-77
2022/10/27 09:46:51;;;;;;;;;;;;;;;19.73;43.86;96276.47;6119779;19;1879;-77
2022/10/27 09:49:02;;;;;;;;;;;;;;;19.73;44.05;96281.78;6120873;19;1049;-77
2022/10/27 09:51:11;;;;;;;;;;;;;;;19.73;44.24;96277.28;6102306;19;1187;-78
2022/10/27 09:53:29;;;;;;;;;;;;;;;19.74;44.08;96275.44;6121074;19;1060;-77
2022/10/27 09:55:51;;;;;;;;;;;;;;;19.73;44.12;96277.28;6120380;19;1026;-77
2022/10/27 09:57:56;;;;;;;;;;;;;;;19.73;44.45;96271.13;6120600;19;1100;-74
2022/10/27 10:00:05;;;;;;;;;;;;;;;19.76;44.49;96281.44;6120658;19;1128;-76
2022/10/27 10:02:24;;;;;;;;;;;;;;;19.76;44.42;96266.28;6105484;19;1194;-75
2022/10/27 10:04:29;;;;;;;;;;;;;;;19.78;44.48;96268.78;6121026;19;1013;-76
2022/10/27 10:06:35;;;;;;;;;;;;;;;19.78;44.12;96266.09;6119528;19;1838;-76
2022/10/27 10:08:38;;;;;;;;;;;;;;;19.77;44.26;96265.25;6118748;19;1113;-76
2022/10/27 10:10:54;;;;;;;;;;;;;;;19.78;44.29;96260.78;6120239;19;970;-76
2022/10/27 10:13:09;;;;;;;;;;;;;;;19.78;44.62;96258.09;6111721;19;1278;-74
2022/10/27 10:15:22;;;;;;;;;;;;;;;19.79;44.22;96262.41;6114581;19;1011;-74
2022/10/27 10:17:27;;;;;;;;;;;;;;;19.79;44.53;96257.91;6120016;19;1021;-79
2022/10/27 10:19:30;;;;;;;;;;;;;;;19.78;44.68;96256.25;6120477;19;1132;-77
2022/10/27 10:21:48;;;;;;;;;;;;;;;19.79;44.46;96255.25;6119944;19;1116;-74
2022/10/27 10:23:54;;;;;;;;;;;;;;;19.79;44.61;96265.91;6121344;19;962;-77
2022/10/27 10:25:59;;;;;;;;;;;;;;;19.80;44.40;96261.41;6106528;19;1127;-76
2022/10/27 10:28:04;;;;;;;;;;;;;;;19.80;44.48;96256.06;6119293;19;1853;-76
2022/10/27 10:30:09;;;;;;;;;;;;;;;19.80;44.77;96256.91;6120435;19;1143;-77
2022/10/27 10:32:17;;;;;;;;;;;;;;;19.80;44.35;96253.41;6119623;19;1132;-79
2022/10/27 10:34:31;;;;;;;;;;;;;;;19.81;44.53;96255.09;6120576;19;1102;-77
2022/10/27 10:36:36;;;;;;;;;;;;;;;19.82;44.41;96259.41;6102822;19;1073;-75
2022/10/27 10:38:41;;;;;;;;;;;;;;;19.81;44.76;96247.91;6118345;19;1045;-73
2022/10/27 10:40:45;;;;;;;;;;;;;;;19.82;44.64;96248.72;6118765;19;1097;-76
2022/10/27 10:42:50;;;;;;;;;;;;;;;19.83;44.89;96251.22;6120707;19;1140;-77
2022/10/27 10:45:10;;;;;;;;;;;;;;;19.83;44.53;96245.91;6120057;19;974;-74
2022/10/27 10:47:27;;;;;;;;;;;;;;;19.83;45.07;96245.91;6111691;19;1861;-75
2022/10/27 10:49:32;;;;;;;;;;;;;;;19.85;44.85;96251.03;6119263;19;1132;-74
2022/10/27 10:51:37;;;;;;;;;;;;;;;19.84;44.80;96239.53;6119311;19;1014;-75
2022/10/27 10:53:43;;;;;;;;;;;;;;;19.85;45.08;96237.69;6119429;19;1045;-75
2022/10/27 10:55:47;;;;;;;;;;;;;;;19.86;44.96;96234.03;6118725;19;1130;-75
2022/10/27 10:57:52;;;;;;;;;;;;;;;19.85;44.82;96233.19;6119559;19;1044;-72
2022/10/27 10:59:57;;;;;;;;;;;;;;;19.85;44.97;96227.84;6101336;19;1506;-72
2022/10/27 11:02:05;;;;;;;;;;;;;;;19.87;44.70;96231.19;6119476;19;1053;-71